Time;durP1;ratioP1;P1;durP2;ratioP2;P2;SDS_P1;SDS_P2;PMS_P1;PMS_P2;Temp;Humidity;BMP_temperature;BMP_pressure;BME280_temperature;BME280_humidity;BME280_pressure;Samples;Min_cycle;Max_cycle;Signal;HPM_P1;HPM_P2
2022/12/16 00:01:15;;;;;;;316.58;155.27;;;;;;;3.57;85.75;94986.16;5009300;28;20202;-83
2022/12/16 00:03:45;;;;;;;344.13;167.55;;;;;;;3.91;86.30;95036.88;5009316;28;20037;-83
2022/12/16 00:06:11;;;;;;;333.63;163.70;;;;;;;3.53;86.47;94980.56;5009067;28;20437;-83
2022/12/16 00:08:38;;;;;;;321.58;158.20;;;;;;;4.18;86.66;95096.44;5008842;28;20037;-83
2022/12/16 00:11:04;;;;;;;336.27;166.85;;;;;;;2.87;87.17;94905.94;5026814;28;20126;-83
2022/12/16 00:13:31;;;;;;;342.05;159.90;;;;;;;3.31;88.59;95017.13;5026935;28;20100;-83
2022/12/16 00:15:57;;;;;;;350.48;172.93;;;;;;;3.81;88.57;95042.75;5006906;28;20131;-83
2022/12/16 00:18:23;;;;;;;333.85;165.75;;;;;;;2.82;88.98;94953.00;5008620;28;20519;-83
2022/12/16 00:20:51;;;;;;;362.92;177.00;;;;;;;3.63;90.07;95067.31;5008981;28;20126;-82
2022/12/16 00:23:17;;;;;;;365.38;177.63;;;;;;;2.72;89.42;94947.53;5005416;28;20080;-83
2022/12/16 00:25:43;;;;;;;362.13;179.57;;;;;;;3.68;89.97;95070.03;5006929;28;20050;-83
2022/12/16 00:28:10;;;;;;;364.08;175.60;;;;;;;3.55;90.07;95053.75;5006231;28;20050;-82
2022/12/16 00:30:37;;;;;;;369.20;182.15;;;;;;;3.14;90.40;94978.75;5001487;28;20073;-83
2022/12/16 00:33:03;;;;;;;374.45;182.75;;;;;;;3.32;89.74;95004.81;5007328;28;20497;-83
2022/12/16 00:35:29;;;;;;;371.17;178.30;;;;;;;3.79;89.89;95050.03;5021792;28;20177;-83
2022/12/16 00:37:55;;;;;;;388.55;179.40;;;;;;;3.71;89.77;95087.94;5005275;28;20124;-82
2022/12/16 00:40:20;;;;;;;367.75;176.18;;;;;;;3.56;89.29;95032.56;5003893;28;20114;-83
2022/12/16 00:42:46;;;;;;;359.98;176.73;;;;;;;2.18;88.77;94817.88;5018268;28;20041;-82
2022/12/16 00:45:11;;;;;;;399.77;182.50;;;;;;;3.23;88.84;94949.34;5000973;28;20124;-83
2022/12/16 00:47:37;;;;;;;382.20;176.30;;;;;;;3.66;88.71;95034.59;5002509;28;20085;-83
2022/12/16 00:50:03;;;;;;;372.95;176.10;;;;;;;3.16;88.86;94919.84;5004087;28;20448;-82
2022/12/16 00:52:28;;;;;;;344.27;162.38;;;;;;;3.79;88.79;95027.22;5004246;28;20132;-83
2022/12/16 00:54:54;;;;;;;359.55;160.15;;;;;;;3.36;88.10;94953.50;5022172;28;20058;-83
2022/12/16 00:57:19;;;;;;;346.70;157.50;;;;;;;3.43;88.33;94983.03;5019674;28;20042;-84
2022/12/16 00:59:44;;;;;;;396.45;154.85;;;;;;;3.19;88.77;94986.75;5004311;28;20536;-83
2022/12/16 01:02:10;;;;;;;398.50;152.15;;;;;;;2.78;89.24;94922.25;5003799;28;20522;-83
2022/12/16 01:04:35;;;;;;;368.45;148.45;;;;;;;3.79;88.95;95060.53;5004696;28;20084;-83
2022/12/16 01:07:01;;;;;;;418.52;153.45;;;;;;;2.88;88.17;94923.25;5003497;28;20076;-83
2022/12/16 01:09:27;;;;;;;419.48;147.32;;;;;;;1.83;88.25;94776.06;5003573;28;20034;-83
2022/12/16 01:11:52;;;;;;;363.60;146.32;;;;;;;3.66;88.08;95035.34;5006282;28;20053;-83
2022/12/16 01:14:18;;;;;;;356.58;148.35;;;;;;;3.02;88.70;94986.66;5004126;28;20038;-83
2022/12/16 01:16:43;;;;;;;374.15;147.48;;;;;;;2.22;88.55;94840.72;5004294;28;20073;-82
2022/12/16 01:19:09;;;;;;;379.92;145.93;;;;;;;2.80;88.55;94918.38;5005711;28;20045;-82
2022/12/16 01:21:36;;;;;;;377.27;130.07;;;;;;;3.08;88.60;94973.41;5005798;28;20100;-82
2022/12/16 01:24:01;;;;;;;360.55;126.00;;;;;;;3.75;88.27;95070.69;5025315;28;20107;-82
2022/12/16 01:26:27;;;;;;;379.35;133.85;;;;;;;3.18;87.74;94985.94;5016907;28;20573;-82
2022/12/16 01:28:52;;;;;;;390.63;138.65;;;;;;;3.50;87.95;95030.88;5004023;28;20591;-82
2022/12/16 01:31:19;;;;;;;324.85;128.55;;;;;;;3.29;87.93;94985.09;5024841;28;20052;-82
2022/12/16 01:33:45;;;;;;;376.05;133.50;;;;;;;2.54;88.53;94858.66;5017738;28;20136;-82
2022/12/16 01:36:10;;;;;;;376.67;138.93;;;;;;;3.83;88.23;95051.16;5007601;28;20246;-82
2022/12/16 01:38:36;;;;;;;360.08;135.88;;;;;;;3.06;87.64;94944.03;5007154;28;20156;-82
2022/12/16 01:41:02;;;;;;;430.98;131.40;;;;;;;3.52;87.46;95012.25;5003732;28;20484;-82
2022/12/16 01:43:30;;;;;;;443.23;135.10;;;;;;;3.49;87.92;95010.94;5020719;28;20495;-82
2022/12/16 01:46:05;;;;;;;379.80;133.27;;;;;;;3.18;87.70;94945.84;5010736;28;20683;-83
2022/12/16 01:48:34;;;;;;;449.08;137.40;;;;;;;3.65;88.38;95069.72;5007293;28;20037;-82
2022/12/16 01:51:35;;;;;;;404.55;140.30;;;;;;;3.62;88.29;95010.66;5006712;28;20462;-82
2022/12/16 01:54:23;;;;;;;441.67;145.23;;;;;;;3.77;88.68;95037.16;4996360;28;20049;-82
2022/12/16 01:56:53;;;;;;;356.42;133.80;;;;;;;3.80;88.87;95049.81;5007648;28;20049;-82
2022/12/16 01:59:21;;;;;;;383.88;140.43;;;;;;;3.47;87.75;94997.25;5007363;28;20045;-83
2022/12/16 02:01:46;;;;;;;390.38;143.98;;;;;;;3.18;88.42;94962.34;5006763;28;20049;-82
2022/12/16 02:04:12;;;;;;;398.48;139.05;;;;;;;3.76;88.56;95059.16;5008118;28;20244;-82
2022/12/16 02:06:38;;;;;;;393.10;137.85;;;;;;;3.38;88.52;94967.19;5043958;28;20843;-82
2022/12/16 02:09:10;;;;;;;445.60;146.00;;;;;;;3.69;89.01;95028.84;5005520;28;20052;-82
2022/12/16 02:11:54;;;;;;;366.17;137.52;;;;;;;3.62;89.17;95028.19;5026052;28;20041;-82
2022/12/16 02:14:36;;;;;;;363.08;141.00;;;;;;;2.67;89.64;94861.03;5002488;28;20525;-82
2022/12/16 02:17:44;;;;;;;346.95;140.50;;;;;;;3.13;90.41;94951.00;5014675;28;20053;-82
2022/12/16 02:20:38;;;;;;;364.65;139.35;;;;;;;3.60;90.45;95002.22;4970810;28;20079;-82
2022/12/16 02:23:41;;;;;;;372.00;145.60;;;;;;;3.61;90.68;95016.13;5008889;28;20060;-82
2022/12/16 02:26:29;;;;;;;375.67;137.98;;;;;;;3.58;90.06;95004.28;5021386;28;20555;-82
2022/12/16 02:29:31;;;;;;;396.90;139.88;;;;;;;3.69;90.08;95021.78;5019511;28;20068;-82
2022/12/16 02:32:29;;;;;;;365.02;136.23;;;;;;;2.37;89.93;94831.59;5009864;28;20157;-82
2022/12/16 02:35:14;;;;;;;353.23;124.95;;;;;;;3.75;89.82;95020.84;5013521;28;20049;-84
2022/12/16 02:37:46;;;;;;;331.30;126.25;;;;;;;3.72;89.91;95017.91;5029852;28;20041;-84
2022/12/16 02:40:33;;;;;;;331.63;124.70;;;;;;;3.85;89.34;95015.00;5004783;28;20503;-84
2022/12/16 02:43:06;;;;;;;350.77;119.53;;;;;;;3.15;88.86;94939.22;5004671;28;20751;-84
2022/12/16 02:45:33;;;;;;;354.08;114.70;;;;;;;2.73;89.12;94867.94;5004812;28;20049;-84
2022/12/16 02:47:58;;;;;;;326.00;109.68;;;;;;;1.93;89.18;94797.19;5004582;28;20107;-84
2022/12/16 02:50:31;;;;;;;369.52;123.13;;;;;;;3.53;89.40;95025.16;5028695;28;20568;-83
2022/12/16 02:53:00;;;;;;;409.17;131.50;;;;;;;3.03;89.33;94962.84;5025422;28;20077;-83
2022/12/16 02:55:42;;;;;;;421.30;140.85;;;;;;;3.32;89.72;95055.41;5032380;28;20428;-84
2022/12/16 02:58:13;;;;;;;401.92;132.48;;;;;;;1.73;89.06;94797.56;5015057;28;20236;-85
2022/12/16 03:01:00;;;;;;;375.63;115.73;;;;;;;2.72;89.31;95007.75;5016907;28;20566;-85
2022/12/16 03:03:38;;;;;;;316.20;111.88;;;;;;;2.28;89.84;94938.47;5006255;28;20942;-85
2022/12/16 03:06:05;;;;;;;302.40;112.85;;;;;;;2.96;89.83;95019.03;5012258;28;20488;-83
2022/12/16 03:08:39;;;;;;;315.10;110.13;;;;;;;2.50;89.73;94942.09;5022650;28;20099;-83
2022/12/16 03:11:09;;;;;;;298.77;106.63;;;;;;;3.41;89.77;95048.78;5004562;28;20566;-83
2022/12/16 03:13:44;;;;;;;269.92;103.47;;;;;;;3.15;89.10;95009.19;5004429;28;20252;-84
2022/12/16 03:16:12;;;;;;;267.73;101.78;;;;;;;2.85;88.98;94934.19;5002618;28;20144;-83
2022/12/16 03:18:42;;;;;;;252.50;102.05;;;;;;;3.19;88.75;94998.03;5032154;28;20471;-83
2022/12/16 03:21:09;;;;;;;278.13;104.40;;;;;;;2.71;88.70;94923.16;5004603;28;20045;-84
2022/12/16 03:23:47;;;;;;;269.25;105.35;;;;;;;3.26;88.50;94992.66;5031472;28;20073;-84
2022/12/16 03:26:18;;;;;;;271.55;102.80;;;;;;;3.08;88.67;94962.94;5003232;28;20118;-83
2022/12/16 03:28:59;;;;;;;273.60;106.23;;;;;;;2.94;89.14;94930.19;5022222;28;20206;-84
2022/12/16 03:31:46;;;;;;;271.70;101.75;;;;;;;3.66;89.11;95026.72;5016370;28;20056;-84
2022/12/16 03:34:42;;;;;;;240.75;96.20;;;;;;;3.08;88.58;94926.25;5025528;28;20471;-84
2022/12/16 03:37:10;;;;;;;255.43;96.10;;;;;;;3.26;88.51;94937.59;4994009;28;20073;-83
2022/12/16 03:39:47;;;;;;;244.85;97.30;;;;;;;3.34;88.41;94947.72;5003050;28;20045;-84
2022/12/16 03:42:14;;;;;;;241.10;93.45;;;;;;;3.49;88.00;95030.06;5003359;28;20045;-84
2022/12/16 03:44:42;;;;;;;223.73;89.43;;;;;;;3.27;89.39;95051.91;5021904;28;20680;-84
2022/12/16 03:47:07;;;;;;;220.00;85.85;;;;;;;2.93;89.53;95016.84;5021965;28;20629;-83
2022/12/16 03:49:32;;;;;;;215.07;83.95;;;;;;;2.30;88.96;94905.00;5012216;28;20057;-84
2022/12/16 03:51:58;;;;;;;217.48;82.63;;;;;;;2.16;89.19;94885.31;5003244;28;20049;-84
2022/12/16 03:54:24;;;;;;;200.70;78.00;;;;;;;3.15;88.85;95032.75;5003239;28;20051;-85
2022/12/16 03:56:50;;;;;;;207.82;77.55;;;;;;;2.85;89.10;94960.38;5021821;28;20046;-84
2022/12/16 03:59:16;;;;;;;204.02;78.35;;;;;;;2.45;88.13;94888.81;5009528;28;20047;-84
2022/12/16 04:01:42;;;;;;;193.45;76.55;;;;;;;3.42;87.78;95005.81;5026204;28;20679;-85
2022/12/16 04:04:07;;;;;;;177.48;72.50;;;;;;;3.33;87.88;95011.66;5019591;28;20537;-85
2022/12/16 04:06:33;;;;;;;179.38;70.32;;;;;;;2.69;86.80;94932.28;5003626;28;20049;-85
2022/12/16 04:08:58;;;;;;;163.50;69.80;;;;;;;3.33;87.05;94986.25;5021519;28;20115;-85
2022/12/16 04:25:20;;;;;;;157.70;69.25;;;;;;;3.20;87.20;94977.84;5026250;28;20601;-83
2022/12/16 04:27:46;;;;;;;162.48;68.53;;;;;;;2.46;87.54;94880.75;5002558;28;20045;-84
2022/12/16 04:30:19;;;;;;;170.07;75.00;;;;;;;3.65;87.60;95027.75;5002455;28;20077;-84
